Nearby METAR Reports

 

KNUQ - Moffett Nas/Mtn, California, USA
Distance from station: N 9mi, 14km
Updated: Mon, 22-May-2017 1:56pm PDT
Clear
Clear
 Wind from NNW
Wind: NNW 12 mph , 19 km/h
Temperature: 73°F , 23°C
Dew Point: 57°F , 14°C
Humidity: 57%
Barometer: 29.95 inHg , 1014.2 hPa
Clouds: Clear
Visibility: 10 miles , 16 km
2017/05/22 20:56 KNUQ 222056Z 34010KT 10SM CLR 23/14 A2995 RMK AO2 SLP143 T02330139 56014
KSJC - San Jose, California, USA
Distance from station: NE 9mi, 14km
Updated: Mon, 22-May-2017 1:53pm PDT
Few Clouds
Few Clouds
 Wind from NW
Wind: NW 8 mph , 13 km/h
Temperature: 82°F , 28°C
Heat Index: 82°F , 28°C
Dew Point: 57°F , 14°C
Humidity: 42%
Barometer: 29.93 inHg , 1013.5 hPa
Clouds: Few Clouds
Visibility: 10 miles , 16 km
Cloud details: Few Clouds 12000 ft
2017/05/22 20:53 KSJC 222053Z 31007KT 10SM FEW120 28/14 A2993 RMK AO2 SLP134 T02830139 56015
 
KRHV - San Jose/Reid, California, USA
Distance from station: ENE 12mi, 19km
Updated: Mon, 22-May-2017 1:47pm PDT
Clear
Clear
 Wind from NNW
Wind: NNW 9 mph , 15 km/h
Temperature: 86°F , 30°C
Dew Point: 55°F , 13°C
Humidity: 35%
Barometer: 29.95 inHg , 1014.2 hPa
Clouds: Clear
Visibility: 10 miles , 16 km
2017/05/22 20:47 KRHV 222047Z 34008KT 10SM SKC 30/13 A2995
KPAO - Palo Alto, California, USA
Distance from station: NNW 14mi, 23km
Updated: Mon, 22-May-2017 1:47pm PDT
Clear
Clear
 Wind from NNW
Wind: NNW 12 mph , 19 km/h
Temperature: 73°F , 23°C
Dew Point: 61°F , 16°C
Humidity: 65%
Barometer: 29.95 inHg , 1014.2 hPa
Clouds: Clear
Visibility: 10 miles , 16 km
2017/05/22 20:47 KPAO 222047Z 34010KT 10SM SKC 23/16 A2995
 
KSQL - San Carlos Airpo, California, USA
Distance from station: NW 21mi, 34km
Updated: Mon, 22-May-2017 1:47pm PDT

 
Visibility: 5 miles
2017/05/22 20:47 KSQL 222047Z 3309KT 10SM FEW200 23/13 A2995
KWVI - Watsonville, California, USA
Distance from station: SSE 27mi, 44km
Updated: Mon, 22-May-2017 1:53pm PDT
Clear
Clear
 Wind from S
Wind: S 12 mph , 19 km/h
Temperature: 64°F , 18°C
Dew Point: 55°F , 13°C
Humidity: 73%
Barometer: 29.99 inHg , 1015.6 hPa
Clouds: Clear
Visibility: 10 miles , 16 km
2017/05/22 20:53 KWVI 222053Z AUTO 19010KT 10SM CLR 18/13 A2999 RMK AO2 SLP153 T01830133 56004 $
 
KHWD - Hayward, California, USA
Distance from station: N 28mi, 44km
Updated: Mon, 22-May-2017 1:54pm PDT
Clear
Clear
 
Temperature: 75°F , 24°C
Dew Point: 52°F , 11°C
Humidity: 44%
Barometer: 29.95 inHg , 1014.2 hPa
Clouds: Clear
Visibility: 10 miles , 16 km
2017/05/22 20:54 KHWD 222054Z 10SM CLR 24/11 A2995 RMK AO2 SLP150 T02440111 56012
KSFO - San Francisco, California, USA
Distance from station: NW 30mi, 49km
Updated: Mon, 22-May-2017 1:56pm PDT
Clear
Clear
 Wind from WNW
Wind: WNW 16 mph , 26 km/h
Temperature: 66°F , 19°C
Dew Point: 52°F , 11°C
Humidity: 60%
Barometer: 29.95 inHg , 1014.2 hPa
Clouds: Clear
Visibility: 10 miles , 16 km
2017/05/22 20:56 KSFO 222056Z 30014KT 10SM CLR 19/11 A2995 RMK AO2 SLP143 T01940106 56010
 
KHAF - Half Moon Bay, California, USA
Distance from station: WNW 31mi, 50km
Updated: Mon, 22-May-2017 2:15pm PDT
Partly Cloudy
Partly Cloudy
 Wind from SW
Wind: SW 6 mph , 9 km/h
Temperature: 57°F , 14°C
Dew Point: 54°F , 12°C
Humidity: 88%
Barometer: 30.01 inHg , 1016.3 hPa
Clouds: Partly Cloudy
Visibility: 7 miles , 11 km
Cloud details: Partly Cloudy 600 ft
2017/05/22 21:15 KHAF 222115Z AUTO 23005KT 7SM SCT006 14/12 A3001 RMK AO2
KOAK - Oakland, California, USA
Distance from station: NNW 31mi, 50km
Updated: Mon, 22-May-2017 1:53pm PDT
Few Clouds
Few Clouds
 Wind from WNW
Wind: WNW 15 mph , 24 km/h
Temperature: 72°F , 22°C
Dew Point: 55°F , 13°C
Humidity: 57%
Barometer: 29.96 inHg , 1014.6 hPa
Clouds: Few Clouds
Visibility: 10 miles , 16 km
Cloud details: Few Clouds 25000 ft
2017/05/22 20:53 KOAK 222053Z 29013KT 10SM FEW250 22/13 A2996 RMK AO2 SLP144 T02170128 56010
 
KLVK - Livermore, California, USA
Distance from station: NNE 31mi, 51km
Updated: Mon, 22-May-2017 1:53pm PDT
Clear
Clear
 Wind from SW
Wind: SW 7 mph , 11 km/h
Temperature: 91°F , 33°C
Dew Point: 48°F , 9°C
Humidity: 23%
Barometer: 29.91 inHg , 1012.9 hPa
Clouds: Clear
Visibility: 10 miles , 16 km
2017/05/22 20:53 KLVK 222053Z 23006KT 10SM CLR 33/09 A2991 RMK AO2 SLP124 T03330094 57015
KCVH - Hollister Muni, California, USA
Distance from station: SE 42mi, 68km
Updated: Mon, 22-May-2017 2:05pm PDT
Clear
Clear
 Wind from WSW
Wind: WSW 13 mph , 20 km/h
Temperature: 84°F , 29°C
Dew Point: 48°F , 9°C
Humidity: 29%
Barometer: 29.95 inHg , 1014.2 hPa
Clouds: Clear
Visibility: 10 miles , 16 km
2017/05/22 21:05 KCVH 222105Z AUTO 25011KT 10SM CLR 29/09 A2995 RMK AO1
 
KSNS - Salinas, California, USA
Distance from station: SSE 48mi, 77km
Updated: Mon, 22-May-2017 1:53pm PDT
Clear
Clear
 Wind from W
Wind: W 15 mph , 24 km/h
Temperature: 66°F , 19°C
Dew Point: 52°F , 11°C
Humidity: 60%
Barometer: 29.97 inHg , 1014.9 hPa
Clouds: Clear
Visibility: 10 miles , 16 km
2017/05/22 20:53 KSNS 222053Z 27013KT 10SM CLR 19/11 A2997 RMK AO2 SLPNO T01890111 56006
KMRY - Monterey, California, USA
Distance from station: SSE 49mi, 78km
Updated: Mon, 22-May-2017 1:54pm PDT
Clear
Clear
 Wind from NNW
Wind: NNW 8 mph , 13 km/h
Temperature: 63°F , 17°C
Dew Point: 52°F , 11°C
Humidity: 68%
Barometer: 29.99 inHg , 1015.6 hPa
Clouds: Clear
Visibility: 10 miles , 16 km
2017/05/22 20:54 KMRY 222054Z 34007KT 300V010 10SM CLR 17/11 A2999 RMK AO2 SLP167 T01720111 58006
 
KCCR - Concord, California, USA
Distance from station: N 50mi, 81km
Updated: Mon, 22-May-2017 1:53pm PDT
Clear
Clear
 Wind from NNW
Wind: NNW 9 mph , 15 km/h
Temperature: 88°F , 31°C
Dew Point: 54°F , 12°C
Humidity: 31%
Barometer: 29.92 inHg , 1013.2 hPa
Clouds: Clear
Visibility: 10 miles , 16 km
2017/05/22 20:53 KCCR 222053Z 33008KT 10SM CLR 31/12 A2992 RMK AO2 SLP117 T03060117 58013

Metar display script from Saratoga-Weather.org